Time;durP1;ratioP1;P1;durP2;ratioP2;P2;SDS_P1;SDS_P2;PMS_P1;PMS_P2;Temp;Humidity;BMP_temperature;BMP_pressure;BME280_temperature;BME280_humidity;BME280_pressure;Samples;Min_cycle;Max_cycle;Signal;HPM_P1;HPM_P2
2022/08/20 00:02:09;;;;;;;;;;;;;;;30.40;45.36;98559.63;4507349;31;33959;-82
2022/08/20 00:04:37;;;;;;;;;;;;;;;30.84;44.57;98568.69;4500173;31;33410;-82
2022/08/20 00:07:07;;;;;;;;;;;;;;;30.95;43.92;98575.81;4502145;31;33909;-82
2022/08/20 00:09:34;;;;;;;;;;;;;;;30.75;44.24;98570.25;4505019;31;33829;-82
2022/08/20 00:12:06;;;;;;;;;;;;;;;30.73;44.46;98579.34;4506840;31;34356;-83
2022/08/20 00:14:34;;;;;;;;;;;;;;;30.82;44.04;98575.97;4501477;31;33525;-82
2022/08/20 00:17:02;;;;;;;;;;;;;;;30.82;44.01;98583.16;4501599;31;34274;-83
2022/08/20 00:19:30;;;;;;;;;;;;;;;30.87;43.77;98578.25;4504970;31;34516;-83
2022/08/20 00:21:57;;;;;;;;;;;;;;;30.75;43.93;98580.09;4507248;31;34134;-84
2022/08/20 00:24:25;;;;;;;;;;;;;;;30.81;43.65;98584.97;4502141;31;34324;-84
2022/08/20 00:26:52;;;;;;;;;;;;;;;31.16;42.66;98592.84;4502121;31;33980;-81
2022/08/20 00:29:19;;;;;;;;;;;;;;;30.95;43.21;98587.41;4503062;31;35316;-82
2022/08/20 00:31:49;;;;;;;;;;;;;;;30.81;43.46;98590.31;4498995;31;35448;-84
2022/08/20 00:34:16;;;;;;;;;;;;;;;30.89;43.40;98589.72;4497802;31;33519;-83
2022/08/20 00:36:44;;;;;;;;;;;;;;;30.91;43.28;98585.94;4497494;31;34327;-83
2022/08/20 00:39:11;;;;;;;;;;;;;;;30.68;43.89;98584.19;4503364;31;34601;-83
2022/08/20 00:41:39;;;;;;;;;;;;;;;30.52;44.31;98585.41;4513718;31;34367;-83
2022/08/20 00:44:11;;;;;;;;;;;;;;;30.63;43.67;98586.41;4515940;31;34331;-84
2022/08/20 00:46:39;;;;;;;;;;;;;;;30.61;43.86;98591.00;4514716;31;34909;-84
2022/08/20 00:49:16;;;;;;;;;;;;;;;30.63;43.71;98587.25;4511210;31;34281;-84
2022/08/20 00:51:52;;;;;;;;;;;;;;;30.78;43.15;98574.50;4502740;31;33773;-82
2022/08/20 00:54:20;;;;;;;;;;;;;;;30.62;43.15;98574.00;4502909;31;33258;-81
2022/08/20 00:56:56;;;;;;;;;;;;;;;30.95;42.17;98571.34;4510362;31;34379;-82
2022/08/20 00:59:24;;;;;;;;;;;;;;;30.64;42.59;98561.34;4515174;31;33995;-82
2022/08/20 01:01:52;;;;;;;;;;;;;;;30.33;43.65;98557.56;4514308;31;35031;-83
2022/08/20 01:04:23;;;;;;;;;;;;;;;30.38;43.15;98556.22;4515899;31;33478;-83
2022/08/20 01:06:50;;;;;;;;;;;;;;;30.11;43.80;98559.19;4514471;31;33827;-85
2022/08/20 01:09:18;;;;;;;;;;;;;;;29.76;44.57;98565.41;4514912;31;35219;-82
2022/08/20 01:12:06;;;;;;;;;;;;;;;28.19;48.64;98566.06;4514974;31;34990;-82
2022/08/20 01:17:02;;;;;;;;;;;;;;;27.41;50.86;98580.12;4515871;31;33620;-82
2022/08/20 01:19:32;;;;;;;;;;;;;;;28.10;49.38;98565.72;4502011;31;34441;-82
2022/08/20 01:21:59;;;;;;;;;;;;;;;27.93;50.07;98558.03;4514994;31;34228;-82
2022/08/20 01:24:31;;;;;;;;;;;;;;;27.95;50.04;98569.44;4514255;31;33471;-84
2022/08/20 01:26:58;;;;;;;;;;;;;;;27.90;49.73;98552.91;4514212;31;35199;-84
2022/08/20 01:29:26;;;;;;;;;;;;;;;27.89;50.31;98556.53;4506915;31;34147;-85
2022/08/20 01:31:59;;;;;;;;;;;;;;;26.54;54.12;98549.28;4500883;31;35129;-86
2022/08/20 01:34:27;;;;;;;;;;;;;;;26.12;55.67;98553.59;4510047;31;34098;-84
2022/08/20 01:36:56;;;;;;;;;;;;;;;26.11;55.79;98535.09;4499596;31;33872;-83
2022/08/20 01:39:24;;;;;;;;;;;;;;;27.07;53.20;98531.72;4509686;31;35279;-84
2022/08/20 01:41:59;;;;;;;;;;;;;;;26.35;55.59;98533.59;4515433;31;34544;-84
2022/08/20 01:44:27;;;;;;;;;;;;;;;26.68;54.49;98543.97;4514467;31;34239;-82
2022/08/20 01:46:58;;;;;;;;;;;;;;;26.44;55.65;98525.06;4514568;31;35053;-84
2022/08/20 01:49:27;;;;;;;;;;;;;;;27.47;52.05;98550.44;4507066;31;35650;-85
2022/08/20 01:51:54;;;;;;;;;;;;;;;26.49;55.35;98548.72;4501236;31;35163;-84
2022/08/20 01:54:22;;;;;;;;;;;;;;;27.16;53.23;98547.13;4513651;31;33685;-84
2022/08/20 01:57:08;;;;;;;;;;;;;;;27.15;53.60;98544.56;4514175;31;34220;-85
2022/08/20 01:59:36;;;;;;;;;;;;;;;26.53;54.99;98536.09;4515294;31;34405;-84
2022/08/20 02:02:05;;;;;;;;;;;;;;;26.84;54.19;98535.84;4513840;31;33892;-85
2022/08/20 02:04:33;;;;;;;;;;;;;;;27.13;53.17;98533.19;4514957;31;33451;-85
2022/08/20 02:07:03;;;;;;;;;;;;;;;26.79;54.23;98524.66;4515238;31;34248;-85
2022/08/20 02:09:32;;;;;;;;;;;;;;;27.31;52.81;98515.13;4515275;31;34053;-85
2022/08/20 02:11:59;;;;;;;;;;;;;;;27.20;52.54;98499.91;4515121;31;33878;-84
2022/08/20 02:14:26;;;;;;;;;;;;;;;27.86;51.12;98500.81;4512138;31;33421;-84
2022/08/20 02:16:57;;;;;;;;;;;;;;;27.80;51.32;98515.37;4515323;31;33862;-83
2022/08/20 02:19:31;;;;;;;;;;;;;;;28.14;50.18;98519.25;4515183;31;34433;-85
2022/08/20 02:21:59;;;;;;;;;;;;;;;27.50;51.70;98528.06;4514957;31;34465;-84
2022/08/20 02:24:26;;;;;;;;;;;;;;;27.75;50.80;98517.50;4501580;31;33952;-85
2022/08/20 02:26:54;;;;;;;;;;;;;;;27.48;51.24;98509.53;4500984;31;34014;-84
2022/08/20 02:29:21;;;;;;;;;;;;;;;28.12;49.74;98510.50;4501277;31;33836;-83
2022/08/20 02:31:48;;;;;;;;;;;;;;;28.12;50.11;98515.84;4515233;31;34299;-84
2022/08/20 02:34:36;;;;;;;;;;;;;;;28.33;49.46;98524.13;4515033;31;33259;-83
2022/08/20 02:37:04;;;;;;;;;;;;;;;28.62;48.37;98543.44;4513934;31;35043;-83
2022/08/20 02:39:31;;;;;;;;;;;;;;;28.75;48.05;98547.91;4515000;31;35009;-84
2022/08/20 02:42:01;;;;;;;;;;;;;;;28.05;49.40;98545.69;4514490;31;33774;-85
2022/08/20 02:44:29;;;;;;;;;;;;;;;28.57;48.27;98536.75;4514013;31;33161;-84
2022/08/20 02:46:57;;;;;;;;;;;;;;;28.19;48.81;98528.75;4513485;31;34126;-86
2022/08/20 02:49:24;;;;;;;;;;;;;;;27.80;49.91;98538.50;4515195;31;34347;-84
2022/08/20 02:51:51;;;;;;;;;;;;;;;28.05;49.45;98538.53;4514837;31;33798;-84
2022/08/20 02:54:18;;;;;;;;;;;;;;;28.64;48.26;98537.16;4515004;31;33481;-84
2022/08/20 02:56:47;;;;;;;;;;;;;;;29.15;46.88;98537.06;4514924;31;33728;-84
2022/08/20 02:59:14;;;;;;;;;;;;;;;28.49;48.45;98544.41;4514811;31;33783;-84
2022/08/20 03:01:47;;;;;;;;;;;;;;;28.76;47.87;98550.47;4514058;31;33766;-84
2022/08/20 03:04:26;;;;;;;;;;;;;;;28.63;48.13;98552.31;4514753;31;33482;-85
2022/08/20 03:06:53;;;;;;;;;;;;;;;28.69;48.16;98578.56;4515131;31;34260;-85
2022/08/20 03:09:20;;;;;;;;;;;;;;;28.36;49.27;98624.38;4514299;31;34061;-84
2022/08/20 03:11:48;;;;;;;;;;;;;;;27.37;50.94;98655.81;4514657;31;34537;-84
2022/08/20 03:14:15;;;;;;;;;;;;;;;27.78;50.09;98646.97;4514693;31;34789;-84
2022/08/20 03:16:42;;;;;;;;;;;;;;;26.35;54.34;98633.72;4514371;31;33868;-84
2022/08/20 03:19:09;;;;;;;;;;;;;;;27.13;51.91;98631.63;4514533;31;34810;-83
2022/08/20 03:21:37;;;;;;;;;;;;;;;27.72;50.57;98637.53;4514970;31;33987;-84
2022/08/20 03:24:04;;;;;;;;;;;;;;;27.35;52.06;98641.72;4513291;31;32790;-85
2022/08/20 03:26:31;;;;;;;;;;;;;;;27.91;50.71;98644.34;4513450;31;34123;-85
2022/08/20 03:28:58;;;;;;;;;;;;;;;27.76;51.03;98662.19;4514610;31;34598;-84
2022/08/20 03:31:26;;;;;;;;;;;;;;;28.11;49.94;98662.53;4514277;31;33949;-84
2022/08/20 03:33:53;;;;;;;;;;;;;;;26.15;55.93;98649.06;4514569;31;33247;-85
2022/08/20 03:36:21;;;;;;;;;;;;;;;27.20;52.96;98651.56;4513240;31;34311;-83
2022/08/20 03:38:56;;;;;;;;;;;;;;;26.61;54.81;98656.97;4514393;31;34223;-84
2022/08/20 03:41:23;;;;;;;;;;;;;;;26.51;54.87;98647.81;4514165;31;34199;-85
2022/08/20 03:43:51;;;;;;;;;;;;;;;27.42;52.63;98656.34;4514460;31;33222;-84
2022/08/20 03:46:18;;;;;;;;;;;;;;;26.78;53.62;98636.44;4514038;31;34065;-83
2022/08/20 03:48:50;;;;;;;;;;;;;;;26.54;54.96;98644.13;4514549;31;34372;-84
2022/08/20 03:51:27;;;;;;;;;;;;;;;26.11;56.05;98631.59;4513406;31;33652;-84
2022/08/20 03:53:55;;;;;;;;;;;;;;;26.33;55.48;98631.19;4514213;31;33161;-85
2022/08/20 03:56:22;;;;;;;;;;;;;;;26.00;56.49;98634.03;4513293;31;33869;-84
2022/08/20 03:58:49;;;;;;;;;;;;;;;26.62;54.54;98634.72;4514233;31;33952;-84
2022/08/20 04:01:17;;;;;;;;;;;;;;;26.85;54.12;98627.13;4513310;31;34147;-84
2022/08/20 04:04:04;;;;;;;;;;;;;;;26.99;53.87;98631.59;4514036;31;33149;-85
2022/08/20 04:06:39;;;;;;;;;;;;;;;27.54;52.30;98638.72;4513998;31;34937;-83
2022/08/20 04:09:07;;;;;;;;;;;;;;;26.79;53.94;98644.34;4512493;31;34453;-83
2022/08/20 04:11:38;;;;;;;;;;;;;;;26.57;54.47;98644.81;4513620;31;34131;-84
2022/08/20 04:14:05;;;;;;;;;;;;;;;26.07;56.25;98639.84;4501884;31;33561;-83
2022/08/20 04:16:33;;;;;;;;;;;;;;;26.82;54.14;98603.38;4498202;31;34024;-85
2022/08/20 04:19:02;;;;;;;;;;;;;;;25.94;56.92;98603.34;4501384;31;33844;-84
2022/08/20 04:21:30;;;;;;;;;;;;;;;26.15;56.44;98595.94;4516132;31;34062;-85
2022/08/20 04:24:01;;;;;;;;;;;;;;;25.85;57.00;98600.41;4516093;31;33434;-85
2022/08/20 04:26:28;;;;;;;;;;;;;;;26.42;55.39;98596.06;4515612;31;35081;-83
2022/08/20 04:28:56;;;;;;;;;;;;;;;27.05;53.70;98602.81;4516076;31;33908;-84
2022/08/20 04:31:23;;;;;;;;;;;;;;;26.96;54.05;98602.53;4516218;31;33666;-85
2022/08/20 04:33:51;;;;;;;;;;;;;;;26.76;54.43;98596.66;4516298;31;33364;-84
2022/08/20 04:36:18;;;;;;;;;;;;;;;27.78;51.34;98594.56;4515801;31;33900;-85
2022/08/20 04:38:46;;;;;;;;;;;;;;;27.66;51.99;98600.66;4515755;31;35173;-85
2022/08/20 04:41:17;;;;;;;;;;;;;;;27.10;53.19;98616.66;4515856;31;34289;-85
2022/08/20 04:43:51;;;;;;;;;;;;;;;26.62;54.54;98621.44;4515777;31;33449;-85
2022/08/20 04:46:19;;;;;;;;;;;;;;;27.05;53.16;98609.91;4515452;31;35041;-85
2022/08/20 04:48:46;;;;;;;;;;;;;;;26.44;54.97;98595.94;4515806;31;34084;-85
2022/08/20 04:51:16;;;;;;;;;;;;;;;27.37;52.05;98598.09;4515938;31;35198;-85
2022/08/20 04:53:44;;;;;;;;;;;;;;;27.01;53.08;98603.97;4515354;31;33244;-85
2022/08/20 04:56:24;;;;;;;;;;;;;;;27.07;53.10;98616.84;4515835;31;34032;-82
2022/08/20 04:58:56;;;;;;;;;;;;;;;27.30;52.58;98623.41;4515758;31;34367;-84
2022/08/20 05:01:24;;;;;;;;;;;;;;;27.45;51.90;98629.53;4514439;31;34816;-84
2022/08/20 05:03:55;;;;;;;;;;;;;;;27.84;51.02;98627.91;4515555;31;32935;-85
2022/08/20 05:06:27;;;;;;;;;;;;;;;28.04;50.56;98630.09;4515865;31;33981;-84
2022/08/20 05:08:55;;;;;;;;;;;;;;;27.98;50.50;98627.84;4515930;31;34422;-85
2022/08/20 05:11:22;;;;;;;;;;;;;;;27.89;50.30;98625.81;4514428;31;34087;-85
2022/08/20 05:14:04;;;;;;;;;;;;;;;28.09;50.24;98627.97;4509971;31;33511;-85
2022/08/20 05:16:36;;;;;;;;;;;;;;;27.95;50.12;98629.84;4501494;31;34242;-85
2022/08/20 05:19:05;;;;;;;;;;;;;;;28.39;49.44;98626.88;4515723;31;34284;-85
2022/08/20 05:21:33;;;;;;;;;;;;;;;28.42;49.44;98613.34;4515757;31;34984;-85
2022/08/20 05:24:01;;;;;;;;;;;;;;;27.83;50.44;98616.41;4515160;31;34274;-85
2022/08/20 05:26:29;;;;;;;;;;;;;;;27.72;50.94;98634.88;4514745;31;34366;-85
2022/08/20 05:28:56;;;;;;;;;;;;;;;28.24;49.85;98631.41;4514676;31;34431;-85
2022/08/20 05:31:27;;;;;;;;;;;;;;;27.42;51.16;98621.75;4515657;31;34255;-85
2022/08/20 05:34:00;;;;;;;;;;;;;;;27.36;51.43;98616.84;4515729;31;33465;-84
2022/08/20 05:36:28;;;;;;;;;;;;;;;27.46;51.56;98603.78;4515185;31;35299;-85
2022/08/20 05:38:55;;;;;;;;;;;;;;;27.59;51.22;98602.88;4515537;31;34059;-85
2022/08/20 05:41:22;;;;;;;;;;;;;;;27.11;52.55;98605.09;4515441;31;33919;-84
2022/08/20 05:43:56;;;;;;;;;;;;;;;27.87;50.61;98612.56;4515502;31;33423;-85
2022/08/20 05:46:23;;;;;;;;;;;;;;;26.88;52.56;98605.69;4515184;31;35607;-85
2022/08/20 05:48:50;;;;;;;;;;;;;;;27.83;50.10;98600.41;4515644;31;34064;-85
2022/08/20 05:51:18;;;;;;;;;;;;;;;28.08;50.19;98607.63;4515464;31;34246;-85
2022/08/20 05:53:45;;;;;;;;;;;;;;;28.43;49.62;98595.53;4515411;31;33420;-85
2022/08/20 05:56:13;;;;;;;;;;;;;;;28.65;48.93;98613.56;4514360;31;34035;-84
2022/08/20 05:58:40;;;;;;;;;;;;;;;28.36;49.23;98611.06;4515106;31;35116;-84
2022/08/20 06:01:07;;;;;;;;;;;;;;;28.72;47.95;98605.00;4515192;31;34421;-85
2022/08/20 06:06:21;;;;;;;;;;;;;;;28.76;48.24;98600.31;4515178;31;33804;-85
2022/08/20 06:09:09;;;;;;;;;;;;;;;29.03;48.02;98598.37;4514850;31;34517;-86
2022/08/20 06:11:39;;;;;;;;;;;;;;;28.24;50.19;98598.56;4515131;31;34125;-85
2022/08/20 06:14:06;;;;;;;;;;;;;;;27.20;52.68;98627.63;4515042;31;33482;-86
2022/08/20 06:16:33;;;;;;;;;;;;;;;27.39;52.85;98612.19;4515177;31;35068;-86
2022/08/20 06:19:04;;;;;;;;;;;;;;;27.34;52.60;98614.25;4515251;31;35129;-85
2022/08/20 06:21:31;;;;;;;;;;;;;;;28.03;50.83;98619.53;4513927;31;35000;-85
2022/08/20 06:23:58;;;;;;;;;;;;;;;28.12;51.02;98622.44;4515170;31;33233;-85
2022/08/20 06:26:28;;;;;;;;;;;;;;;28.67;49.77;98617.81;4499164;31;35047;-85
2022/08/20 06:29:00;;;;;;;;;;;;;;;28.54;49.96;98624.97;4498017;31;35214;-86
2022/08/20 06:31:28;;;;;;;;;;;;;;;28.13;50.67;98633.94;4497704;31;35253;-85
2022/08/20 06:33:55;;;;;;;;;;;;;;;27.67;50.80;98636.13;4499637;31;33713;-84
2022/08/20 06:36:23;;;;;;;;;;;;;;;28.07;50.26;98653.00;4515001;31;35062;-84
2022/08/20 06:38:53;;;;;;;;;;;;;;;28.17;49.75;98675.44;4514682;31;35374;-84
2022/08/20 06:41:20;;;;;;;;;;;;;;;27.36;51.53;98672.75;4514686;31;33768;-85
2022/08/20 06:43:48;;;;;;;;;;;;;;;27.38;52.06;98662.84;4515081;31;34077;-86
2022/08/20 06:46:15;;;;;;;;;;;;;;;26.23;56.11;98656.56;4514550;31;32750;-85
2022/08/20 06:48:43;;;;;;;;;;;;;;;26.97;54.95;98650.31;4514647;31;35319;-85
2022/08/20 06:51:10;;;;;;;;;;;;;;;27.30;53.09;98667.78;4514852;31;34276;-85
2022/08/20 06:53:38;;;;;;;;;;;;;;;26.61;54.75;98693.34;4514745;31;33066;-85
2022/08/20 06:56:05;;;;;;;;;;;;;;;27.15;53.82;98689.09;4514891;31;33252;-85
2022/08/20 06:58:32;;;;;;;;;;;;;;;27.64;52.38;98709.94;4514448;31;34054;-85
2022/08/20 07:01:08;;;;;;;;;;;;;;;27.51;52.14;98697.53;4514889;31;33701;-85
2022/08/20 07:03:37;;;;;;;;;;;;;;;27.91;50.43;98701.12;4513788;31;34499;-86
2022/08/20 07:06:05;;;;;;;;;;;;;;;27.93;51.71;98714.38;4515006;31;33929;-84
2022/08/20 07:08:32;;;;;;;;;;;;;;;28.31;50.31;98712.69;4514618;31;34343;-86
2022/08/20 07:10:59;;;;;;;;;;;;;;;28.58;49.12;98711.81;4515002;31;34744;-85
2022/08/20 07:13:27;;;;;;;;;;;;;;;28.05;50.27;98726.88;4514680;31;33327;-84
2022/08/20 07:15:54;;;;;;;;;;;;;;;28.35;48.54;98711.50;4512180;31;34827;-84
2022/08/20 07:18:22;;;;;;;;;;;;;;;28.67;49.03;98705.81;4514489;31;34230;-84
2022/08/20 07:20:56;;;;;;;;;;;;;;;28.44;49.56;98707.41;4500825;31;34545;-85
2022/08/20 07:23:24;;;;;;;;;;;;;;;28.17;51.10;98709.22;4513690;31;34291;-85
2022/08/20 07:25:51;;;;;;;;;;;;;;;28.43;50.66;98715.50;4513224;31;34199;-85
2022/08/20 07:28:20;;;;;;;;;;;;;;;28.40;50.15;98719.22;4513235;31;34379;-85
2022/08/20 07:33:40;;;;;;;;;;;;;;;28.69;49.55;98735.06;4514477;31;33449;-84
2022/08/20 07:36:08;;;;;;;;;;;;;;;28.76;49.46;98750.56;4514355;31;34113;-85
2022/08/20 07:38:35;;;;;;;;;;;;;;;28.95;48.25;98760.81;4512963;31;35286;-84
2022/08/20 07:41:04;;;;;;;;;;;;;;;28.48;48.54;98772.03;4513571;31;34826;-85
2022/08/20 07:43:32;;;;;;;;;;;;;;;27.98;50.13;98779.72;4514683;31;32989;-86
2022/08/20 07:46:00;;;;;;;;;;;;;;;28.41;49.42;98787.59;4507319;31;34049;-84
2022/08/20 07:48:29;;;;;;;;;;;;;;;28.01;51.29;98776.00;4498024;31;34411;-84
2022/08/20 07:50:59;;;;;;;;;;;;;;;27.42;52.46;98771.69;4498155;31;34709;-83
2022/08/20 07:53:26;;;;;;;;;;;;;;;27.28;52.16;98781.50;4502674;31;33158;-85
2022/08/20 07:56:01;;;;;;;;;;;;;;;27.49;51.12;98789.94;4515170;31;34994;-84
2022/08/20 07:58:29;;;;;;;;;;;;;;;26.88;52.52;98814.00;4509727;31;35236;-84
2022/08/20 08:00:59;;;;;;;;;;;;;;;27.46;50.94;98824.75;4499890;31;33913;-82
2022/08/20 08:03:28;;;;;;;;;;;;;;;27.40;51.74;98836.66;4500648;31;32786;-85
2022/08/20 08:06:15;;;;;;;;;;;;;;;27.59;50.82;98839.88;4499755;31;35097;-82
2022/08/20 08:08:54;;;;;;;;;;;;;;;28.14;49.49;98833.72;4499793;31;34296;-86
2022/08/20 08:11:21;;;;;;;;;;;;;;;28.21;48.92;98812.03;4484774;31;35045;-86
2022/08/20 08:13:48;;;;;;;;;;;;;;;28.72;47.47;98810.41;4499792;31;34383;-85
2022/08/20 08:16:16;;;;;;;;;;;;;;;28.27;48.35;98823.16;4486001;31;34145;-84
2022/08/20 08:18:44;;;;;;;;;;;;;;;28.49;47.46;98827.97;4515232;31;34229;-84
2022/08/20 08:21:11;;;;;;;;;;;;;;;28.39;47.79;98837.50;4490288;31;34119;-85
2022/08/20 08:23:43;;;;;;;;;;;;;;;28.74;47.42;98831.66;4485225;31;33407;-86
2022/08/20 08:26:11;;;;;;;;;;;;;;;28.93;47.13;98825.91;4499615;31;33899;-87
2022/08/20 08:28:45;;;;;;;;;;;;;;;29.19;46.46;98819.69;4499852;31;34526;-86
2022/08/20 08:31:13;;;;;;;;;;;;;;;29.40;45.79;98809.34;4500090;31;34241;-86
2022/08/20 08:33:40;;;;;;;;;;;;;;;29.45;45.78;98807.19;4500096;31;33204;-84
2022/08/20 08:36:09;;;;;;;;;;;;;;;29.55;45.97;98810.91;4499346;31;34156;-84
2022/08/20 08:38:37;;;;;;;;;;;;;;;29.69;45.89;98817.13;4499947;31;34362;-85
2022/08/20 08:41:12;;;;;;;;;;;;;;;29.57;45.94;98805.47;4498764;31;33803;-82
2022/08/20 08:43:40;;;;;;;;;;;;;;;29.81;44.44;98792.19;4499425;31;33671;-81
2022/08/20 08:46:10;;;;;;;;;;;;;;;28.65;47.30;98763.78;4499589;31;34064;-82
2022/08/20 08:48:38;;;;;;;;;;;;;;;27.94;48.95;98762.22;4499088;31;35248;-81
2022/08/20 08:51:11;;;;;;;;;;;;;;;28.26;48.67;98748.59;4492775;31;34068;-81
2022/08/20 08:53:41;;;;;;;;;;;;;;;28.44;48.21;98747.41;4499081;31;33685;-82
2022/08/20 08:56:08;;;;;;;;;;;;;;;28.62;48.08;98769.31;4485736;31;33992;-84
2022/08/20 08:58:36;;;;;;;;;;;;;;;28.87;47.48;98776.50;4505035;31;35336;-82
2022/08/20 09:01:07;;;;;;;;;;;;;;;29.01;47.14;98773.75;4515128;31;35180;-82
2022/08/20 09:03:55;;;;;;;;;;;;;;;28.29;48.31;98772.38;4511781;31;33155;-82
2022/08/20 09:06:22;;;;;;;;;;;;;;;28.35;48.37;98750.66;4515621;31;34256;-82
2022/08/20 09:08:52;;;;;;;;;;;;;;;27.26;51.35;98732.81;4514300;31;33177;-81
2022/08/20 09:11:21;;;;;;;;;;;;;;;28.20;49.18;98741.00;4514989;31;34073;-81
2022/08/20 09:13:55;;;;;;;;;;;;;;;26.95;52.86;98753.31;4513935;31;34127;-82
2022/08/20 09:16:23;;;;;;;;;;;;;;;26.95;52.74;98766.63;4515420;31;33649;-81
2022/08/20 09:18:52;;;;;;;;;;;;;;;25.99;55.57;98780.19;4515120;31;34262;-82
2022/08/20 09:21:19;;;;;;;;;;;;;;;25.70;56.47;98794.13;4508807;31;35089;-80
2022/08/20 09:23:46;;;;;;;;;;;;;;;26.00;56.18;98803.19;4508683;31;32950;-80
2022/08/20 09:26:16;;;;;;;;;;;;;;;26.20;54.97;98806.41;4509189;31;33692;-81
2022/08/20 09:28:43;;;;;;;;;;;;;;;26.61;54.25;98800.53;4509517;31;34433;-81
2022/08/20 09:31:18;;;;;;;;;;;;;;;27.52;51.87;98793.28;4505066;31;34844;-81
2022/08/20 09:33:48;;;;;;;;;;;;;;;27.65;51.18;98788.91;4508945;31;33836;-81
2022/08/20 09:36:15;;;;;;;;;;;;;;;27.50;51.20;98784.50;4509174;31;32775;-81
2022/08/20 09:38:59;;;;;;;;;;;;;;;27.62;50.87;98788.25;4503242;31;35181;-81
2022/08/20 09:41:26;;;;;;;;;;;;;;;28.11;49.82;98793.97;4505056;31;33819;-81
2022/08/20 09:43:53;;;;;;;;;;;;;;;28.31;49.56;98794.47;4507752;31;33776;-83
2022/08/20 09:46:22;;;;;;;;;;;;;;;27.09;51.58;98789.72;4503720;31;33702;-83
2022/08/20 09:48:53;;;;;;;;;;;;;;;26.60;52.44;98793.50;4508191;31;35299;-82
2022/08/20 09:51:21;;;;;;;;;;;;;;;26.41;53.80;98779.56;4514283;31;34319;-81
2022/08/20 09:53:48;;;;;;;;;;;;;;;26.03;55.05;98766.66;4503987;31;33598;-82
2022/08/20 09:56:15;;;;;;;;;;;;;;;25.61;56.61;98759.25;4504689;31;33486;-83
2022/08/20 09:58:47;;;;;;;;;;;;;;;25.46;56.87;98739.75;4508996;31;34562;-82
2022/08/20 10:01:14;;;;;;;;;;;;;;;25.02;58.38;98719.09;4513172;31;34953;-83
2022/08/20 10:03:42;;;;;;;;;;;;;;;25.81;56.37;98708.59;4515211;31;33406;-81
2022/08/20 10:06:10;;;;;;;;;;;;;;;25.66;56.68;98694.34;4515337;31;33851;-81
2022/08/20 10:08:37;;;;;;;;;;;;;;;25.83;56.34;98680.13;4515486;31;34298;-82
2022/08/20 10:11:04;;;;;;;;;;;;;;;25.70;56.41;98660.53;4514569;31;34242;-82
2022/08/20 10:13:32;;;;;;;;;;;;;;;26.21;54.60;98655.81;4505104;31;33301;-83
2022/08/20 10:15:59;;;;;;;;;;;;;;;25.94;55.12;98635.22;4507211;31;35129;-82
2022/08/20 10:18:26;;;;;;;;;;;;;;;25.64;57.01;98629.00;4508022;31;34265;-84
2022/08/20 10:20:54;;;;;;;;;;;;;;;25.70;57.39;98632.16;4509769;31;34947;-83
2022/08/20 10:23:21;;;;;;;;;;;;;;;25.90;58.81;98633.69;4508062;31;33480;-81
2022/08/20 10:25:48;;;;;;;;;;;;;;;26.17;57.10;98644.50;4497955;31;35024;-82
2022/08/20 10:28:15;;;;;;;;;;;;;;;26.05;57.22;98655.84;4502170;31;35197;-82
2022/08/20 10:30:43;;;;;;;;;;;;;;;26.82;55.84;98667.22;4513060;31;35041;-82
2022/08/20 10:33:11;;;;;;;;;;;;;;;26.91;55.29;98669.31;4509219;31;33185;-84
2022/08/20 10:35:38;;;;;;;;;;;;;;;26.61;54.99;98682.69;4508148;31;33723;-84
2022/08/20 10:38:05;;;;;;;;;;;;;;;27.03;54.21;98692.50;4505899;31;33912;-81
2022/08/20 10:40:33;;;;;;;;;;;;;;;27.31;54.11;98696.13;4514737;31;34468;-82
2022/08/20 10:43:00;;;;;;;;;;;;;;;27.22;53.90;98721.50;4514445;31;33812;-83
2022/08/20 10:45:28;;;;;;;;;;;;;;;26.52;56.05;98721.34;4513991;31;34326;-82
2022/08/20 10:47:57;;;;;;;;;;;;;;;27.76;52.19;98726.97;4513696;31;34366;-83
2022/08/20 10:50:25;;;;;;;;;;;;;;;27.05;52.57;98722.53;4513888;31;33993;-83
2022/08/20 10:52:56;;;;;;;;;;;;;;;26.42;54.22;98720.13;4514075;31;33293;-84
2022/08/20 10:55:24;;;;;;;;;;;;;;;27.44;51.68;98729.00;4513712;31;34339;-83
2022/08/20 10:57:51;;;;;;;;;;;;;;;26.95;54.47;98745.31;4513581;31;35216;-82
2022/08/20 11:00:18;;;;;;;;;;;;;;;27.87;53.26;98747.59;4511624;31;35433;-82
2022/08/20 11:02:45;;;;;;;;;;;;;;;28.11;53.09;98759.31;4510354;31;33214;-83
2022/08/20 11:05:13;;;;;;;;;;;;;;;28.72;50.47;98756.22;4498234;31;34405;-83
2022/08/20 11:07:41;;;;;;;;;;;;;;;29.03;49.20;98763.84;4502249;31;34218;-82
2022/08/20 11:10:24;;;;;;;;;;;;;;;29.37;49.00;98756.13;4507013;31;35119;-81
2022/08/20 11:12:51;;;;;;;;;;;;;;;28.12;49.92;98753.03;4503318;31;33284;-82
2022/08/20 11:15:18;;;;;;;;;;;;;;;28.03;50.82;98755.44;4510496;31;34963;-81
2022/08/20 11:17:46;;;;;;;;;;;;;;;28.06;49.65;98750.75;4502212;31;33066;-84
2022/08/20 11:20:14;;;;;;;;;;;;;;;28.08;49.99;98754.19;4508354;31;33865;-84
2022/08/20 11:22:41;;;;;;;;;;;;;;;27.87;51.00;98755.59;4507989;31;33454;-85
2022/08/20 11:25:09;;;;;;;;;;;;;;;28.05;50.23;98759.72;4498660;31;34398;-83
2022/08/20 11:27:43;;;;;;;;;;;;;;;28.07;51.77;98768.47;4498482;31;33846;-84
2022/08/20 11:30:11;;;;;;;;;;;;;;;28.60;49.77;98761.41;4498427;31;34506;-84
2022/08/20 11:32:39;;;;;;;;;;;;;;;28.37;50.98;98764.75;4498611;31;33545;-84
2022/08/20 11:35:07;;;;;;;;;;;;;;;29.12;47.92;98748.12;4513262;31;34310;-85
2022/08/20 11:37:55;;;;;;;;;;;;;;;28.53;49.72;98754.78;4497368;31;34050;-85
2022/08/20 11:40:23;;;;;;;;;;;;;;;28.12;50.89;98753.03;4498545;31;34003;-85
2022/08/20 11:42:50;;;;;;;;;;;;;;;28.94;49.89;98743.06;4507111;31;33367;-85
2022/08/20 11:45:38;;;;;;;;;;;;;;;29.22;49.57;98736.72;4504232;31;34196;-83
2022/08/20 11:48:05;;;;;;;;;;;;;;;29.12;50.27;98734.78;4504987;31;35277;-84
2022/08/20 11:50:34;;;;;;;;;;;;;;;29.32;49.71;98727.09;4504343;31;33965;-83
2022/08/20 11:53:02;;;;;;;;;;;;;;;29.55;49.94;98721.94;4506437;31;33421;-84
2022/08/20 11:55:32;;;;;;;;;;;;;;;29.15;49.74;98713.22;4506051;31;34521;-84
2022/08/20 11:58:01;;;;;;;;;;;;;;;29.17;49.22;98721.97;4502644;31;35340;-84
2022/08/20 12:00:31;;;;;;;;;;;;;;;29.02;48.18;98714.09;4501772;31;34342;-83
2022/08/20 12:03:04;;;;;;;;;;;;;;;28.49;49.00;98718.63;4501619;31;33402;-82
2022/08/20 12:05:36;;;;;;;;;;;;;;;28.39;50.26;98722.88;4501885;31;34919;-81
2022/08/20 12:08:03;;;;;;;;;;;;;;;28.08;50.51;98718.69;4509059;31;34465;-82
2022/08/20 12:10:31;;;;;;;;;;;;;;;28.40;49.04;98715.72;4512522;31;33865;-82
2022/08/20 12:12:58;;;;;;;;;;;;;;;29.22;49.48;98712.69;4513391;31;33321;-82
2022/08/20 12:15:28;;;;;;;;;;;;;;;29.24;48.42;98709.88;4513634;31;33833;-82
2022/08/20 12:17:58;;;;;;;;;;;;;;;29.11;47.33;98695.72;4498430;31;34396;-84
2022/08/20 12:20:25;;;;;;;;;;;;;;;29.25;49.32;98698.28;4496867;31;34450;-83
2022/08/20 12:22:52;;;;;;;;;;;;;;;29.58;45.14;98693.19;4506190;31;33566;-81
2022/08/20 12:25:20;;;;;;;;;;;;;;;29.51;45.66;98688.34;4510409;31;33973;-82
2022/08/20 12:27:50;;;;;;;;;;;;;;;29.86;45.06;98685.81;4505118;31;34788;-82
2022/08/20 12:30:20;;;;;;;;;;;;;;;30.02;45.53;98677.50;4500170;31;33898;-82
2022/08/20 12:32:48;;;;;;;;;;;;;;;29.83;46.46;98672.69;4505890;31;32452;-83
2022/08/20 12:35:16;;;;;;;;;;;;;;;29.33;46.80;98663.88;4506165;31;34906;-81
2022/08/20 12:37:44;;;;;;;;;;;;;;;29.28;46.84;98666.00;4505264;31;34425;-82
2022/08/20 12:40:14;;;;;;;;;;;;;;;28.97;47.33;98667.28;4508403;31;35328;-82
2022/08/20 12:42:41;;;;;;;;;;;;;;;29.08;46.52;98654.94;4506320;31;33042;-85
2022/08/20 12:45:10;;;;;;;;;;;;;;;28.61;47.85;98648.44;4507079;31;34377;-84
2022/08/20 12:47:39;;;;;;;;;;;;;;;28.75;48.19;98642.16;4506300;31;35136;-84
2022/08/20 12:50:07;;;;;;;;;;;;;;;29.08;48.43;98638.91;4505546;31;33772;-85
2022/08/20 12:52:37;;;;;;;;;;;;;;;29.03;49.50;98634.88;4504099;31;34480;-86
2022/08/20 12:55:05;;;;;;;;;;;;;;;29.40;48.28;98637.53;4475685;31;854981;-85
2022/08/20 12:57:43;;;;;;;;;;;;;;;29.87;47.51;98619.88;4504023;31;34232;-85
2022/08/20 13:00:15;;;;;;;;;;;;;;;29.76;47.22;98620.66;4506936;31;33998;-85
2022/08/20 13:02:46;;;;;;;;;;;;;;;29.04;48.43;98616.09;4506199;31;34068;-84
2022/08/20 13:05:15;;;;;;;;;;;;;;;29.34;47.90;98607.66;4508738;31;34956;-84
2022/08/20 13:07:43;;;;;;;;;;;;;;;28.67;49.25;98617.81;4510055;31;32796;-83